createdAt,value
2023-05-27T00:01:58.194Z,10.18
2023-05-27T00:05:00.378Z,9.90
2023-05-27T00:08:02.245Z,9.52
2023-05-27T00:11:03.842Z,8.63
2023-05-27T00:14:05.461Z,8.52
2023-05-27T00:17:07.196Z,8.35
2023-05-27T00:20:11.197Z,8.63
2023-05-27T00:23:12.834Z,8.50
2023-05-27T00:26:14.929Z,8.25
2023-05-27T00:29:19.949Z,7.80
2023-05-27T00:32:21.627Z,8.25
2023-05-27T00:35:23.298Z,8.05
2023-05-27T00:38:24.890Z,7.53
2023-05-27T00:41:27.585Z,8.50
2023-05-27T00:44:29.410Z,6.85
2023-05-27T00:47:34.163Z,7.53
2023-05-27T00:50:35.941Z,6.72
2023-05-27T00:53:42.489Z,9.20
2023-05-27T00:56:44.836Z,8.75
2023-05-27T00:59:46.635Z,8.25
2023-05-27T01:02:49.537Z,9.15
2023-05-27T01:06:01.562Z,8.75
2023-05-27T01:09:25.652Z,7.55
2023-05-27T01:12:42.058Z,9.15
2023-05-27T01:15:43.961Z,9.88
2023-05-27T01:18:46.238Z,10.15
2023-05-27T01:21:51.887Z,9.73
2023-05-27T01:24:53.786Z,10.45
2023-05-27T01:27:57.341Z,9.25
2023-05-27T01:31:10.791Z,10.07
2023-05-27T01:34:19.247Z,10.15
2023-05-27T01:37:24.501Z,10.57
2023-05-27T01:40:27.807Z,11.00
2023-05-27T01:43:30.060Z,11.15
2023-05-27T01:46:31.636Z,10.00
2023-05-27T01:49:33.342Z,10.02
2023-05-27T01:52:34.948Z,10.05
2023-05-27T01:55:36.613Z,10.77
2023-05-27T01:58:38.235Z,10.50
2023-05-27T02:01:41.038Z,10.68
2023-05-27T02:04:42.705Z,10.40
2023-05-27T02:07:44.361Z,11.18
2023-05-27T02:10:45.995Z,10.25
2023-05-27T02:13:47.685Z,10.98
2023-05-27T02:16:50.688Z,10.27
2023-05-27T02:19:52.482Z,10.77
2023-05-27T02:22:54.292Z,10.48
2023-05-27T02:25:56.323Z,10.25
2023-05-27T02:28:57.887Z,9.50
2023-05-27T02:31:59.517Z,9.55
2023-05-27T02:35:01.249Z,9.57
2023-05-27T02:38:02.968Z,9.50
2023-05-27T02:41:04.684Z,10.05
2023-05-27T02:44:06.697Z,9.43
2023-05-27T02:47:08.410Z,9.10
2023-05-27T02:50:10.414Z,9.95
2023-05-27T02:53:12.088Z,11.02
2023-05-27T02:56:13.699Z,9.57
2023-05-27T02:59:15.354Z,9.95
2023-05-27T03:02:17.080Z,11.25
2023-05-27T03:05:18.714Z,9.13
2023-05-27T03:08:20.390Z,9.93
2023-05-27T03:11:22.352Z,10.85
2023-05-27T03:14:24.183Z,10.00
2023-05-27T03:17:25.984Z,11.23
2023-05-27T03:20:27.585Z,10.48
2023-05-27T03:23:29.251Z,10.63
2023-05-27T03:26:31.284Z,10.70
2023-05-27T03:29:32.965Z,9.68
2023-05-27T03:32:35.056Z,10.98
2023-05-27T03:35:36.739Z,10.68
2023-05-27T03:38:38.391Z,10.80
2023-05-27T03:41:40.073Z,10.25
2023-05-27T03:44:41.693Z,11.27
2023-05-27T03:47:43.384Z,10.68
2023-05-27T03:50:44.970Z,9.07
2023-05-27T03:53:46.564Z,9.25
2023-05-27T03:56:48.203Z,9.27
2023-05-27T03:59:49.839Z,8.77
2023-05-27T04:02:51.607Z,9.82
2023-05-27T04:05:53.296Z,9.82
2023-05-27T04:08:54.957Z,10.43
2023-05-27T04:11:56.664Z,9.98
2023-05-27T04:14:58.909Z,10.30
2023-05-27T04:18:00.946Z,8.85
2023-05-27T04:21:02.610Z,9.57
2023-05-27T04:24:04.715Z,9.07
2023-05-27T04:27:06.444Z,10.13
2023-05-27T04:30:09.885Z,8.73
2023-05-27T04:33:12.518Z,9.23
2023-05-27T04:36:18.076Z,9.27
2023-05-27T04:39:19.877Z,9.40
2023-05-27T04:42:21.700Z,8.75
2023-05-27T04:45:23.365Z,8.55
2023-05-27T04:48:25.199Z,8.43
2023-05-27T04:51:27.190Z,8.80
2023-05-27T04:54:28.890Z,9.63
2023-05-27T04:57:30.562Z,8.52
2023-05-27T05:00:51.729Z,8.88
2023-05-27T05:04:03.755Z,7.82
2023-05-27T05:07:05.446Z,8.15
2023-05-27T05:10:08.741Z,8.60
2023-05-27T05:13:10.502Z,9.07
2023-05-27T05:16:12.216Z,8.20
2023-05-27T05:19:13.988Z,8.00
2023-05-27T05:22:15.580Z,8.05
2023-05-27T05:25:17.129Z,7.90
2023-05-27T05:28:18.713Z,8.00
2023-05-27T05:31:20.485Z,7.35
2023-05-27T05:34:22.104Z,6.72
2023-05-27T05:37:25.016Z,7.00
2023-05-27T05:40:26.726Z,6.90
2023-05-27T05:43:28.422Z,6.72
2023-05-27T05:46:30.264Z,7.18
2023-05-27T05:49:31.969Z,6.80
2023-05-27T05:52:33.599Z,6.43
2023-05-27T05:55:35.537Z,5.75
2023-05-27T05:58:37.215Z,6.43
2023-05-27T06:01:38.826Z,6.10
2023-05-27T06:04:40.476Z,6.32
2023-05-27T06:07:42.139Z,5.68
2023-05-27T06:10:43.791Z,6.03
2023-05-27T06:13:45.432Z,6.22
2023-05-27T06:16:47.027Z,5.95
2023-05-27T06:19:48.602Z,6.22
2023-05-27T06:22:50.282Z,6.15
2023-05-27T06:25:52.957Z,5.38
2023-05-27T06:28:54.627Z,5.38
2023-05-27T06:31:56.237Z,5.45
2023-05-27T06:34:57.920Z,5.70
2023-05-27T06:38:00.146Z,5.13
2023-05-27T06:41:01.822Z,5.50
2023-05-27T06:44:03.749Z,5.75
2023-05-27T06:47:05.706Z,4.70
2023-05-27T06:50:08.110Z,4.78
2023-05-27T06:53:11.616Z,4.78
2023-05-27T06:56:13.221Z,4.93
2023-05-27T06:59:14.781Z,4.60
2023-05-27T07:02:16.431Z,4.40
2023-05-27T07:05:18.018Z,4.93
2023-05-27T07:08:19.680Z,5.15
2023-05-27T07:11:21.658Z,5.03
2023-05-27T07:14:23.251Z,7.25
2023-05-27T07:17:24.912Z,4.93
2023-05-27T07:20:26.656Z,5.10
2023-05-27T07:23:28.351Z,4.60
2023-05-27T07:26:31.302Z,4.82
2023-05-27T07:29:32.953Z,5.22
2023-05-27T07:32:34.713Z,5.40
2023-05-27T07:35:36.367Z,4.47
2023-05-27T07:38:38.038Z,5.05
2023-05-27T07:41:39.833Z,5.07
2023-05-27T07:44:41.473Z,4.28
2023-05-27T07:47:43.168Z,4.78
2023-05-27T07:50:44.914Z,5.00
2023-05-27T07:53:46.566Z,4.38
2023-05-27T07:56:48.277Z,4.75
2023-05-27T07:59:50.412Z,4.10
2023-05-27T08:02:52.150Z,4.50
2023-05-27T08:05:55.294Z,4.18
2023-05-27T08:08:57.009Z,4.05
2023-05-27T08:11:58.832Z,4.68
2023-05-27T08:15:00.563Z,4.90
2023-05-27T08:18:02.880Z,4.85
2023-05-27T08:21:04.619Z,4.50
2023-05-27T08:24:06.505Z,4.45
2023-05-27T08:27:19.593Z,4.32
2023-05-27T08:30:21.352Z,4.03
2023-05-27T08:33:24.442Z,4.53
2023-05-27T08:36:26.147Z,4.60
2023-05-27T08:39:28.949Z,4.00
2023-05-27T08:42:30.717Z,3.78
2023-05-27T08:45:32.669Z,4.32
2023-05-27T08:48:34.429Z,3.63
2023-05-27T08:51:40.689Z,3.65
2023-05-27T08:54:43.330Z,4.10
2023-05-27T08:57:56.076Z,3.72
2023-05-27T09:00:58.246Z,4.20
2023-05-27T09:04:04.980Z,4.03
2023-05-27T09:07:07.077Z,4.07
2023-05-27T09:10:09.253Z,3.40
2023-05-27T09:13:10.920Z,3.97
2023-05-27T09:16:12.730Z,4.30
2023-05-27T09:19:18.804Z,4.65
2023-05-27T09:22:26.022Z,3.65
2023-05-27T09:25:29.109Z,3.72
2023-05-27T09:28:30.714Z,3.60
2023-05-27T09:31:32.416Z,4.50
2023-05-27T09:34:39.812Z,3.67
2023-05-27T09:37:42.151Z,4.65
2023-05-27T09:40:45.982Z,4.25
2023-05-27T09:43:55.044Z,3.88
2023-05-27T09:46:58.618Z,3.50
2023-05-27T09:50:00.878Z,4.53
2023-05-27T09:53:11.846Z,4.18
2023-05-27T09:56:14.531Z,3.97
2023-05-27T09:59:16.446Z,3.50
2023-05-27T10:02:21.338Z,4.13
2023-05-27T10:05:24.005Z,2.92
2023-05-27T10:08:27.100Z,3.72
2023-05-27T10:11:33.080Z,3.58
2023-05-27T10:14:35.069Z,3.30
2023-05-27T10:17:50.711Z,8.13
2023-05-27T10:20:52.935Z,3.63
2023-05-27T10:23:58.658Z,4.25
2023-05-27T10:27:07.088Z,4.80
2023-05-27T10:30:09.208Z,7.72
2023-05-27T10:33:11.085Z,4.65
2023-05-27T10:36:27.698Z,2.90
2023-05-27T10:39:30.184Z,3.85
2023-05-27T10:42:31.938Z,3.58
2023-05-27T10:45:35.047Z,3.25
2023-05-27T10:48:38.702Z,4.05
2023-05-27T10:51:41.066Z,3.78
2023-05-27T10:54:45.007Z,3.42
2023-05-27T10:57:48.063Z,4.28
2023-05-27T11:00:52.171Z,5.30
2023-05-27T11:03:55.353Z,4.10
2023-05-27T11:07:00.887Z,3.05
2023-05-27T11:10:06.639Z,3.90
2023-05-27T11:13:08.486Z,4.15
2023-05-27T11:16:10.942Z,4.20
2023-05-27T11:19:12.896Z,3.90
2023-05-27T11:22:15.988Z,3.78
2023-05-27T11:25:17.661Z,3.92
2023-05-27T11:28:19.269Z,4.65
2023-05-27T11:31:27.507Z,3.38
2023-05-27T11:34:29.343Z,4.10
2023-05-27T11:37:35.982Z,3.75
2023-05-27T11:40:40.400Z,3.70
2023-05-27T11:43:59.347Z,3.83
2023-05-27T11:47:01.842Z,3.35
2023-05-27T11:50:04.100Z,4.18
2023-05-27T11:53:05.736Z,4.35
2023-05-27T11:56:07.564Z,4.97
2023-05-27T11:59:09.251Z,4.10
2023-05-27T12:02:10.992Z,4.60
2023-05-27T12:05:18.493Z,3.63
2023-05-27T12:08:27.619Z,3.65
2023-05-27T12:11:29.264Z,3.75
2023-05-27T12:14:30.835Z,4.10
2023-05-27T12:17:32.436Z,4.10
2023-05-27T12:20:34.034Z,3.03
2023-05-27T12:23:35.857Z,4.10
2023-05-27T12:26:38.435Z,4.85
2023-05-27T12:29:40.012Z,4.07
2023-05-27T12:32:43.123Z,4.25
2023-05-27T12:35:45.051Z,4.38
2023-05-27T12:38:46.760Z,5.28
2023-05-27T12:41:48.741Z,3.28
2023-05-27T12:44:50.421Z,4.03
2023-05-27T12:47:52.123Z,3.72
2023-05-27T12:50:54.125Z,3.90
2023-05-27T12:53:55.692Z,3.70
2023-05-27T12:56:57.345Z,4.20
2023-05-27T12:59:58.910Z,3.42
2023-05-27T13:03:00.582Z,4.03
2023-05-27T13:06:02.263Z,5.18
2023-05-27T13:09:05.089Z,4.63
2023-05-27T13:12:07.254Z,3.88
2023-05-27T13:15:10.133Z,4.05
2023-05-27T13:18:11.856Z,5.10
2023-05-27T13:21:13.593Z,7.05
2023-05-27T13:24:15.192Z,5.93
2023-05-27T13:27:16.852Z,6.57
2023-05-27T13:30:18.755Z,4.88
2023-05-27T13:33:20.454Z,7.55
2023-05-27T13:36:22.062Z,4.63
2023-05-27T13:39:23.649Z,3.42
2023-05-27T13:42:25.722Z,3.38
2023-05-27T13:45:28.113Z,3.75
2023-05-27T13:48:30.778Z,4.13
2023-05-27T13:51:33.292Z,3.58
2023-05-27T13:54:34.999Z,3.28
2023-05-27T13:57:36.652Z,3.58
2023-05-27T14:00:38.350Z,3.65
2023-05-27T14:03:39.917Z,3.78
2023-05-27T14:06:41.773Z,4.00
2023-05-27T14:09:43.498Z,3.90
2023-05-27T14:12:45.084Z,3.65
2023-05-27T14:15:46.859Z,3.95
2023-05-27T14:18:48.731Z,3.58
2023-05-27T14:21:50.393Z,4.30
2023-05-27T14:24:52.214Z,5.03
2023-05-27T14:27:53.820Z,4.53
2023-05-27T14:30:55.621Z,4.13
2023-05-27T14:33:57.357Z,4.00
2023-05-27T14:36:59.029Z,3.75
2023-05-27T14:40:00.735Z,3.80
2023-05-27T14:43:02.862Z,3.30
2023-05-27T14:46:04.538Z,3.60
2023-05-27T14:49:06.467Z,4.25
2023-05-27T14:52:08.141Z,3.75
2023-05-27T14:55:10.486Z,3.28
2023-05-27T14:58:12.388Z,3.58
2023-05-27T15:01:15.985Z,3.72
2023-05-27T15:04:18.515Z,3.88
2023-05-27T15:07:23.523Z,3.85
2023-05-27T15:10:25.559Z,3.85
2023-05-27T15:13:27.286Z,3.30
2023-05-27T15:16:29.350Z,4.13
2023-05-27T15:19:31.462Z,4.05
2023-05-27T15:22:33.105Z,3.88
2023-05-27T15:25:37.253Z,3.70
2023-05-27T15:28:39.038Z,4.15
2023-05-27T15:31:40.883Z,4.68
2023-05-27T15:34:42.565Z,3.65
2023-05-27T15:37:44.223Z,4.07
2023-05-27T15:40:46.116Z,4.22
2023-05-27T15:43:47.791Z,4.15
2023-05-27T15:46:49.439Z,3.33
2023-05-27T15:49:51.246Z,3.75
2023-05-27T15:52:52.841Z,3.50
2023-05-27T15:55:54.550Z,4.55
2023-05-27T15:58:56.549Z,3.60
2023-05-27T16:01:58.186Z,3.67
2023-05-27T16:04:59.886Z,4.13
2023-05-27T16:08:01.498Z,4.05
2023-05-27T16:11:03.084Z,4.13
2023-05-27T16:14:04.722Z,4.05
2023-05-27T16:17:06.727Z,4.25
2023-05-27T16:20:08.697Z,3.75
2023-05-27T16:23:10.327Z,3.88
2023-05-27T16:26:11.925Z,4.30
2023-05-27T16:29:13.597Z,3.97
2023-05-27T16:32:15.622Z,3.33
2023-05-27T16:35:17.314Z,3.92
2023-05-27T16:38:20.062Z,3.65
2023-05-27T16:41:22.971Z,4.90
2023-05-27T16:44:24.559Z,4.30
2023-05-27T16:47:26.634Z,4.10
2023-05-27T16:50:28.462Z,4.35
2023-05-27T16:53:30.440Z,4.72
2023-05-27T16:56:32.100Z,4.10
2023-05-27T16:59:33.805Z,3.75
2023-05-27T17:02:36.196Z,3.83
2023-05-27T17:05:38.124Z,4.22
2023-05-27T17:08:39.765Z,4.03
2023-05-27T17:11:41.412Z,3.92
2023-05-27T17:14:44.674Z,3.88
2023-05-27T17:17:46.317Z,3.97
2023-05-27T17:20:48.202Z,4.07
2023-05-27T17:23:49.880Z,4.28
2023-05-27T17:26:51.619Z,4.25
2023-05-27T17:29:53.645Z,4.20
2023-05-27T17:32:55.593Z,4.35
2023-05-27T17:35:57.363Z,4.05
2023-05-27T17:38:59.736Z,4.20
2023-05-27T17:42:01.786Z,4.03
2023-05-27T17:45:03.637Z,4.10
2023-05-27T17:48:05.383Z,4.57
2023-05-27T17:51:07.433Z,3.83
2023-05-27T17:54:09.681Z,3.80
2023-05-27T17:57:11.338Z,3.90
2023-05-27T18:00:13.714Z,4.53
2023-05-27T18:03:15.558Z,4.07
2023-05-27T18:06:17.291Z,4.22
2023-05-27T18:09:18.916Z,4.13
2023-05-27T18:12:20.574Z,4.75
2023-05-27T18:15:22.330Z,4.20
2023-05-27T18:18:24.240Z,4.40
2023-05-27T18:21:26.217Z,4.20
2023-05-27T18:24:27.889Z,4.03
2023-05-27T18:27:29.486Z,3.75
2023-05-27T18:30:31.315Z,4.05
2023-05-27T18:33:33.002Z,3.85
2023-05-27T18:36:34.742Z,4.00
2023-05-27T18:39:36.358Z,4.38
2023-05-27T18:42:39.110Z,4.50
2023-05-27T18:45:53.887Z,4.10
2023-05-27T18:48:55.580Z,4.40
2023-05-27T18:51:57.205Z,4.20
2023-05-27T18:54:58.794Z,3.58
2023-05-27T18:58:00.571Z,3.92
2023-05-27T19:01:02.298Z,5.38
2023-05-27T19:04:04.028Z,4.40
2023-05-27T19:07:05.888Z,4.93
2023-05-27T19:10:07.993Z,4.03
2023-05-27T19:13:09.910Z,4.53
2023-05-27T19:16:11.668Z,4.18
2023-05-27T19:19:13.305Z,5.47
2023-05-27T19:22:17.688Z,4.78
2023-05-27T19:25:19.422Z,5.28
2023-05-27T19:28:21.042Z,4.28
2023-05-27T19:31:22.775Z,5.18
2023-05-27T19:34:24.691Z,5.32
2023-05-27T19:37:26.419Z,5.53
2023-05-27T19:40:28.166Z,5.35
2023-05-27T19:43:30.088Z,4.97
2023-05-27T19:46:31.762Z,4.57
2023-05-27T19:49:33.451Z,8.68
2023-05-27T19:52:35.077Z,12.63
2023-05-27T19:55:36.966Z,8.07
2023-05-27T19:58:38.616Z,6.03
2023-05-27T20:01:40.441Z,8.75
2023-05-27T20:04:42.152Z,9.55
2023-05-27T20:07:43.927Z,11.35
2023-05-27T20:10:45.727Z,7.88
2023-05-27T20:13:47.374Z,6.55
2023-05-27T20:16:49.150Z,4.18
2023-05-27T20:19:51.098Z,4.30
2023-05-27T20:22:52.740Z,4.07
2023-05-27T20:25:54.591Z,2.97
2023-05-27T20:28:56.351Z,3.10
2023-05-27T20:31:57.983Z,4.25
2023-05-27T20:34:59.592Z,5.05
2023-05-27T20:38:01.189Z,5.00
2023-05-27T20:41:05.875Z,3.50
2023-05-27T20:44:08.170Z,4.18
2023-05-27T20:47:10.864Z,3.60
2023-05-27T20:50:12.659Z,3.70
2023-05-27T20:53:14.352Z,3.70
2023-05-27T20:56:16.134Z,3.63
2023-05-27T20:59:18.088Z,2.92
2023-05-27T21:02:19.801Z,3.08
2023-05-27T21:05:21.490Z,2.83
2023-05-27T21:08:23.104Z,2.75
2023-05-27T21:11:24.681Z,3.05
2023-05-27T21:14:26.355Z,3.35
2023-05-27T21:17:28.067Z,3.30
2023-05-27T21:20:30.000Z,3.08
2023-05-27T21:23:31.746Z,2.85
2023-05-27T21:26:34.009Z,2.63
2023-05-27T21:29:35.704Z,2.17
2023-05-27T21:32:37.562Z,2.33
2023-05-27T21:35:40.584Z,2.35
2023-05-27T21:38:45.356Z,2.67
2023-05-27T21:41:47.006Z,2.80
2023-05-27T21:44:50.958Z,2.85
2023-05-27T21:47:52.772Z,1.98
2023-05-27T21:50:54.526Z,2.25
2023-05-27T21:53:57.928Z,2.53
2023-05-27T21:56:59.636Z,2.78
2023-05-27T22:00:03.548Z,1.92
2023-05-27T22:03:06.204Z,2.13
2023-05-27T22:06:08.374Z,2.70
2023-05-27T22:09:12.097Z,2.13
2023-05-27T22:12:15.468Z,1.70
2023-05-27T22:15:17.209Z,2.17
2023-05-27T22:18:18.820Z,2.03
2023-05-27T22:21:28.704Z,2.15
2023-05-27T22:24:32.138Z,1.90
2023-05-27T22:27:34.629Z,2.13
2023-05-27T22:30:36.414Z,2.38
2023-05-27T22:33:38.071Z,2.15
2023-05-27T22:36:40.038Z,2.20
2023-05-27T22:39:41.811Z,1.70
2023-05-27T22:42:43.488Z,1.85
2023-05-27T22:45:45.089Z,2.10
2023-05-27T22:48:47.025Z,2.42
2023-05-27T22:51:48.681Z,1.95
2023-05-27T22:54:50.374Z,2.78
2023-05-27T22:57:51.956Z,1.88
2023-05-27T23:00:53.524Z,1.88
2023-05-27T23:03:55.306Z,2.28
2023-05-27T23:06:57.010Z,2.00
2023-05-27T23:09:58.770Z,1.58
2023-05-27T23:13:00.374Z,2.03
2023-05-27T23:16:08.792Z,1.83
2023-05-27T23:19:11.675Z,2.25
2023-05-27T23:22:13.339Z,1.88
2023-05-27T23:25:15.029Z,2.13
2023-05-27T23:28:16.643Z,1.30
2023-05-27T23:31:18.360Z,2.35
2023-05-27T23:34:20.662Z,1.80
2023-05-27T23:37:22.255Z,1.67
2023-05-27T23:40:23.896Z,1.75
2023-05-27T23:43:28.317Z,2.47
2023-05-27T23:46:29.992Z,1.67
2023-05-27T23:49:31.640Z,1.48
2023-05-27T23:52:33.209Z,1.67
2023-05-27T23:55:34.788Z,2.60
2023-05-27T23:58:36.390Z,2.33
